Time;durP1;ratioP1;P1;durP2;ratioP2;P2;SDS_P1;SDS_P2;PMS_P1;PMS_P2;Temp;Humidity;BMP_temperature;BMP_pressure;BME280_temperature;BME280_humidity;BME280_pressure;Samples;Min_cycle;Max_cycle;Signal;HPM_P1;HPM_P2
2022/12/12 00:01:17;;;;;;;3.75;1.75;;;;;;;10.57;100.00;99087.69;4971760;28;20568;-78
2022/12/12 00:03:43;;;;;;;3.75;2.40;;;;;;;10.36;100.00;99085.66;4971881;28;20420;-80
2022/12/12 00:06:08;;;;;;;2.05;0.95;;;;;;;10.41;100.00;99090.88;4986922;28;20105;-80
2022/12/12 00:08:34;;;;;;;2.95;1.70;;;;;;;10.42;100.00;99108.97;4972492;28;20122;-83
2022/12/12 00:10:59;;;;;;;2.90;1.40;;;;;;;10.40;100.00;99114.94;4971762;28;20509;-79
2022/12/12 00:13:24;;;;;;;2.30;1.40;;;;;;;9.98;100.00;99088.44;4986631;28;20031;-79
2022/12/12 00:15:50;;;;;;;1.52;1.20;;;;;;;9.74;100.00;99096.63;4971923;28;20090;-80
2022/12/12 00:18:15;;;;;;;2.83;1.20;;;;;;;9.46;100.00;99091.81;4986811;28;20097;-80
2022/12/12 00:20:41;;;;;;;2.60;1.48;;;;;;;9.58;100.00;99110.91;4971757;28;20027;-78
2022/12/12 00:23:06;;;;;;;1.67;1.23;;;;;;;9.53;100.00;99109.13;4971680;28;20114;-79
2022/12/12 00:25:32;;;;;;;11.25;1.65;;;;;;;9.39;100.00;99095.09;4970486;28;20743;-78
2022/12/12 00:27:59;;;;;;;1.55;1.20;;;;;;;9.67;100.00;99134.25;4970998;28;20023;-81
2022/12/12 00:30:24;;;;;;;6.93;4.90;;;;;;;9.49;100.00;99138.22;4971581;28;20050;-78
2022/12/12 00:32:50;;;;;;;3.80;1.98;;;;;;;9.61;100.00;99136.72;4971495;28;20051;-78
2022/12/12 00:35:16;;;;;;;1.42;1.00;;;;;;;9.56;100.00;99134.09;4971399;28;20022;-78
2022/12/12 00:37:41;;;;;;;0.90;0.90;;;;;;;9.40;100.00;99145.78;4971401;28;20019;-79
2022/12/12 00:40:07;;;;;;;1.35;0.90;;;;;;;9.47;100.00;99139.94;4971260;28;20387;-79
2022/12/12 00:42:33;;;;;;;2.20;0.90;;;;;;;9.36;100.00;99157.72;4971511;28;20023;-77
2022/12/12 00:44:58;;;;;;;1.15;0.90;;;;;;;9.16;100.00;99154.75;4973532;28;20074;-80
2022/12/12 00:47:24;;;;;;;1.38;1.00;;;;;;;9.05;100.00;99151.91;4970882;28;20093;-78
2022/12/12 00:49:49;;;;;;;1.70;1.20;;;;;;;8.96;100.00;99145.69;4971517;28;20110;-77
2022/12/12 00:52:15;;;;;;;1.38;0.85;;;;;;;8.83;100.00;99118.84;4970228;28;20109;-80
2022/12/12 00:54:40;;;;;;;2.40;0.93;;;;;;;9.03;100.00;99151.03;4971292;28;20063;-80
2022/12/12 00:57:05;;;;;;;2.47;1.40;;;;;;;9.17;100.00;99153.91;4971045;28;20023;-80
2022/12/12 00:59:31;;;;;;;1.38;1.17;;;;;;;9.38;100.00;99156.06;4971042;28;20106;-80
2022/12/12 01:01:56;;;;;;;1.15;0.82;;;;;;;9.54;100.00;99164.09;4970947;28;20043;-80
2022/12/12 01:04:22;;;;;;;2.47;1.10;;;;;;;9.50;100.00;99172.59;4971253;28;20022;-80
2022/12/12 01:06:47;;;;;;;3.03;1.10;;;;;;;9.28;100.00;99145.53;4970924;28;20035;-80
2022/12/12 01:09:12;;;;;;;1.65;1.10;;;;;;;9.35;100.00;99143.09;4971213;28;20026;-80
2022/12/12 01:11:38;;;;;;;1.33;1.02;;;;;;;9.51;100.00;99175.22;4970668;28;20477;-80
2022/12/12 01:14:03;;;;;;;1.10;0.90;;;;;;;9.60;100.00;99166.78;4971059;28;20062;-79
2022/12/12 01:16:29;;;;;;;2.28;1.10;;;;;;;9.61;100.00;99162.50;4970936;28;20379;-80
2022/12/12 01:18:55;;;;;;;0.90;0.80;;;;;;;9.62;100.00;99159.06;4971435;28;20074;-77
2022/12/12 01:21:21;;;;;;;1.92;0.95;;;;;;;9.58;100.00;99162.44;4970962;28;20446;-74
2022/12/12 01:23:47;;;;;;;1.30;1.10;;;;;;;9.67;100.00;99171.22;4970536;28;20042;-74
2022/12/12 01:26:16;;;;;;;1.40;1.05;;;;;;;9.66;100.00;99168.63;4984569;28;20382;-72
2022/12/12 01:28:43;;;;;;;3.30;1.30;;;;;;;9.54;100.00;99167.56;4972775;28;20046;-73
2022/12/12 01:31:09;;;;;;;2.70;1.10;;;;;;;9.42;100.00;99171.56;4975854;28;20474;-79
2022/12/12 01:33:35;;;;;;;2.25;1.20;;;;;;;9.37;100.00;99174.94;4970790;28;20038;-79
2022/12/12 01:36:00;;;;;;;1.45;1.20;;;;;;;9.16;100.00;99180.50;4971144;28;20046;-78
2022/12/12 01:38:26;;;;;;;3.05;1.45;;;;;;;9.01;100.00;99187.84;5005346;28;20061;-80
2022/12/12 01:40:52;;;;;;;1.65;1.15;;;;;;;8.52;100.00;99134.44;4990867;28;20054;-79
2022/12/12 01:43:20;;;;;;;1.77;1.33;;;;;;;8.95;100.00;99201.47;4990986;28;20096;-77
2022/12/12 01:46:29;;;;;;;1.70;1.30;;;;;;;9.04;100.00;99199.09;4991417;28;20030;-77
2022/12/12 01:49:05;;;;;;;2.13;1.30;;;;;;;9.10;100.00;99203.53;4949741;29;20415;-77
2022/12/12 01:51:32;;;;;;;2.20;1.40;;;;;;;9.12;100.00;99206.13;4949926;29;20031;-77
2022/12/12 01:54:10;;;;;;;2.03;1.10;;;;;;;9.03;100.00;99210.25;4949905;29;20039;-77
2022/12/12 01:56:38;;;;;;;2.35;1.42;;;;;;;9.13;100.00;99219.03;4949888;29;20063;-76
2022/12/12 01:59:06;;;;;;;1.38;1.20;;;;;;;9.20;100.00;99228.63;4949775;28;20075;-77
2022/12/12 02:01:33;;;;;;;1.92;1.25;;;;;;;9.10;99.01;99234.41;4953355;29;20521;-77
2022/12/12 02:04:00;;;;;;;2.97;1.40;;;;;;;9.03;99.14;99224.81;4953367;29;20479;-77
2022/12/12 02:06:27;;;;;;;1.58;1.20;;;;;;;9.18;99.64;99238.06;4953428;29;20043;-77
2022/12/12 02:08:57;;;;;;;3.08;1.45;;;;;;;9.21;98.90;99237.25;4953457;29;20110;-77
2022/12/12 02:11:22;;;;;;;1.67;1.40;;;;;;;9.14;97.80;99243.09;4953195;29;20047;-77
2022/12/12 02:13:49;;;;;;;3.05;1.30;;;;;;;8.96;98.85;99225.50;4953396;28;20035;-77
2022/12/12 02:16:29;;;;;;;1.45;1.35;;;;;;;8.77;99.35;99214.75;4953321;29;20130;-77
2022/12/12 02:19:16;;;;;;;3.60;1.50;;;;;;;8.75;99.86;99252.47;4937088;29;20182;-77
2022/12/12 02:22:00;;;;;;;2.70;1.60;;;;;;;8.60;99.82;99221.22;4953103;29;20047;-77
2022/12/12 02:24:38;;;;;;;3.22;1.88;;;;;;;8.86;99.38;99256.19;4956703;28;20034;-77
2022/12/12 02:27:22;;;;;;;3.58;1.85;;;;;;;8.57;99.85;99246.03;4994257;28;20030;-77
2022/12/12 02:30:08;;;;;;;2.08;1.73;;;;;;;8.22;100.00;99255.38;4994194;28;20397;-76
2022/12/12 02:32:45;;;;;;;1.45;1.25;;;;;;;7.99;100.00;99259.88;4994315;28;20541;-76
2022/12/12 02:35:11;;;;;;;2.60;1.80;;;;;;;8.04;100.00;99255.75;4993940;28;20876;-76
2022/12/12 02:38:01;;;;;;;2.45;1.80;;;;;;;8.07;100.00;99263.53;4994415;28;20113;-76
2022/12/12 02:40:29;;;;;;;3.65;1.50;;;;;;;8.07;100.00;99264.44;4993904;28;20413;-76
2022/12/12 02:43:05;;;;;;;1.80;1.40;;;;;;;8.15;100.00;99267.19;4993974;28;20532;-77
2022/12/12 02:45:35;;;;;;;2.70;1.70;;;;;;;7.96;100.00;99270.94;4994027;28;20070;-76
2022/12/12 02:48:15;;;;;;;2.85;1.67;;;;;;;7.84;100.00;99274.06;4994051;28;20037;-77
2022/12/12 02:50:46;;;;;;;3.65;2.00;;;;;;;7.58;100.00;99269.00;4993803;28;20031;-77
2022/12/12 02:53:11;;;;;;;2.72;1.88;;;;;;;7.83;100.00;99269.72;4992655;28;20041;-77
2022/12/12 02:55:37;;;;;;;3.80;2.08;;;;;;;7.89;100.00;99267.34;4993765;28;20030;-77
2022/12/12 02:58:04;;;;;;;7.63;2.35;;;;;;;8.10;100.00;99281.63;4993576;28;20406;-80
2022/12/12 03:00:39;;;;;;;2.67;1.70;;;;;;;8.22;100.00;99287.09;4992545;28;20022;-80
2022/12/12 03:09:22;;;;;;;2.65;1.52;;;;;;;8.41;100.00;99282.44;4993701;28;20061;-79
2022/12/12 03:12:08;;;;;;;2.65;2.00;;;;;;;8.30;100.00;99268.41;4993388;28;20177;-79
2022/12/12 03:15:15;;;;;;;3.03;1.90;;;;;;;8.10;100.00;99248.22;4993482;28;20037;-80
2022/12/12 03:18:21;;;;;;;2.58;1.77;;;;;;;8.23;100.00;99277.69;4993222;28;20500;-77
2022/12/12 03:21:03;;;;;;;2.88;2.20;;;;;;;8.27;100.00;99276.94;4993397;28;20022;-77
2022/12/12 03:23:36;;;;;;;2.88;2.08;;;;;;;8.37;100.00;99284.09;4993233;28;20085;-77
2022/12/12 03:26:20;;;;;;;3.25;2.00;;;;;;;8.09;100.00;99285.03;4993260;28;20076;-78
2022/12/12 03:28:51;;;;;;;2.63;2.05;;;;;;;7.92;100.00;99299.97;5008391;28;20030;-77
2022/12/12 03:31:22;;;;;;;3.97;2.00;;;;;;;7.75;100.00;99286.63;4992842;28;20512;-78
2022/12/12 03:33:59;;;;;;;3.10;2.20;;;;;;;7.83;100.00;99285.16;4993053;28;20030;-77
2022/12/12 03:36:32;;;;;;;4.00;2.33;;;;;;;7.81;100.00;99293.63;4993128;28;20044;-77
2022/12/12 03:39:05;;;;;;;4.28;2.40;;;;;;;7.69;100.00;99291.56;4992864;28;20034;-77
2022/12/12 03:41:42;;;;;;;4.18;1.95;;;;;;;7.34;100.00;99301.66;5008182;28;20444;-78
2022/12/12 03:44:16;;;;;;;3.85;2.47;;;;;;;7.13;100.00;99300.16;4992990;28;20065;-78
2022/12/12 03:46:56;;;;;;;3.97;2.38;;;;;;;7.02;100.00;99304.09;4993080;28;20026;-77
2022/12/12 03:49:28;;;;;;;;;;;;;;;7.05;100.00;99315.34;4993278;28;20084;-77
2022/12/12 03:52:20;;;;;;;4.63;2.70;;;;;;;7.07;100.00;99305.09;4992626;28;19916;-77
2022/12/12 03:55:13;;;;;;;3.28;2.30;;;;;;;7.29;100.00;99320.38;4932307;29;20470;-77
2022/12/12 03:57:50;;;;;;;4.45;2.95;;;;;;;7.40;100.00;99325.84;4931617;29;20036;-77
2022/12/12 04:00:17;;;;;;;4.00;2.67;;;;;;;7.41;100.00;99311.28;4932144;29;20090;-78
2022/12/12 04:03:05;;;;;;;4.40;2.85;;;;;;;7.33;100.00;99318.75;4932178;29;20027;-77
2022/12/12 04:05:33;;;;;;;4.22;2.60;;;;;;;6.88;100.00;99293.34;4932148;29;20063;-77
2022/12/12 04:08:11;;;;;;;3.28;2.35;;;;;;;6.96;100.00;99333.84;4919817;29;20505;-77
2022/12/12 04:13:45;;;;;;;;;;;;;;;7.08;100.00;99350.50;4913910;29;20047;-78
2022/12/12 04:16:13;;;;;;;5.43;2.80;;;;;;;7.15;100.00;99354.97;4913150;29;19911;-78
2022/12/12 04:18:44;;;;;;;4.68;2.80;;;;;;;7.28;100.00;99359.69;4912740;29;20040;-78
2022/12/12 04:24:17;;;;;;;4.57;3.10;;;;;;;7.10;100.00;99370.25;4912437;29;20502;-77
2022/12/12 04:27:27;;;;;;;6.50;3.70;;;;;;;6.99;100.00;99368.13;4912878;29;20047;-77
2022/12/12 04:30:05;;;;;;;5.18;2.90;;;;;;;6.95;100.00;99372.28;4912844;29;20100;-76
2022/12/12 04:32:42;;;;;;;5.63;2.80;;;;;;;6.64;100.00;99349.03;4971631;28;20043;-79
2022/12/12 04:35:10;;;;;;;4.25;3.03;;;;;;;6.92;100.00;99387.59;4972605;28;20042;-78
2022/12/12 04:37:41;;;;;;;3.63;2.67;;;;;;;6.64;100.00;99343.00;4972459;28;20030;-78
2022/12/12 04:40:10;;;;;;;4.25;3.00;;;;;;;6.95;100.00;99385.09;4972249;28;20030;-78
2022/12/12 04:42:39;;;;;;;;;;;;;;;6.99;100.00;99386.97;4973242;28;20500;-76
2022/12/12 04:45:10;;;;;;;5.05;3.00;;;;;;;6.91;100.00;99380.72;4987222;28;19922;-77
2022/12/12 04:47:38;;;;;;;4.03;2.80;;;;;;;6.60;100.00;99352.31;4971698;28;20045;-76
2022/12/12 04:50:07;;;;;;;5.25;3.17;;;;;;;6.79;100.00;99388.84;4991373;28;20093;-78
2022/12/12 04:52:33;;;;;;;4.28;3.10;;;;;;;6.85;100.00;99390.75;4991449;28;20031;-79
2022/12/12 04:55:13;;;;;;;5.20;3.38;;;;;;;6.93;100.00;99390.19;4991491;28;20512;-80
2022/12/12 04:57:44;;;;;;;6.53;3.00;;;;;;;6.99;100.00;99373.25;4991544;28;20069;-80
2022/12/12 05:00:11;;;;;;;6.35;3.42;;;;;;;7.24;100.00;99393.78;4991725;28;20034;-80
2022/12/12 05:02:50;;;;;;;5.55;3.55;;;;;;;7.30;100.00;99390.53;4991369;28;20412;-80
2022/12/12 05:05:39;;;;;;;7.95;3.78;;;;;;;6.98;100.00;99351.88;4991558;28;20049;-77
2022/12/12 05:08:14;;;;;;;50.23;24.47;;;;;;;7.27;100.00;99388.75;4991352;28;20038;-77
2022/12/12 05:10:45;;;;;;;28.40;14.27;;;;;;;7.45;100.00;99408.13;4988023;28;20270;-78
2022/12/12 05:13:20;;;;;;;8.93;4.18;;;;;;;7.44;100.00;99378.16;4988832;28;20026;-75
2022/12/12 05:15:48;;;;;;;5.78;3.53;;;;;;;7.64;100.00;99395.88;4990049;28;20396;-76
2022/12/12 05:18:13;;;;;;;5.38;3.50;;;;;;;7.60;100.00;99382.97;4988299;28;20102;-74
2022/12/12 05:20:39;;;;;;;6.18;3.63;;;;;;;7.64;100.00;99385.59;4982023;28;20029;-75
2022/12/12 05:23:04;;;;;;;10.25;3.72;;;;;;;7.52;100.00;99352.72;4978298;28;20101;-76
2022/12/12 05:25:30;;;;;;;6.38;3.50;;;;;;;7.55;100.00;99338.28;4972059;28;20093;-75
2022/12/12 05:27:56;;;;;;;10.07;7.97;;;;;;;7.47;100.00;99360.28;4971681;28;20031;-75
2022/12/12 05:30:22;;;;;;;14.55;8.23;;;;;;;7.45;100.00;99383.34;4971673;28;20038;-77
2022/12/12 05:32:47;;;;;;;5.35;3.60;;;;;;;7.37;100.00;99383.94;4972024;28;20147;-77
2022/12/12 05:35:13;;;;;;;4.55;2.67;;;;;;;7.30;100.00;99393.09;4974048;28;20502;-76
2022/12/12 05:37:38;;;;;;;7.70;3.55;;;;;;;7.32;100.00;99403.44;4975672;28;20035;-77
2022/12/12 05:40:07;;;;;;;6.97;3.97;;;;;;;7.25;100.00;99395.53;4975813;28;20034;-76
2022/12/12 05:42:33;;;;;;;4.28;2.90;;;;;;;7.20;100.00;99411.59;4986171;28;20041;-76
2022/12/12 05:44:58;;;;;;;4.50;3.05;;;;;;;7.18;100.00;99423.50;4994713;28;20090;-78
2022/12/12 05:47:24;;;;;;;8.45;4.53;;;;;;;7.20;100.00;99427.91;5009153;28;20101;-76
2022/12/12 05:49:49;;;;;;;6.68;3.70;;;;;;;7.20;100.00;99435.59;4995018;28;20039;-76
2022/12/12 05:52:14;;;;;;;4.95;3.30;;;;;;;7.22;100.00;99440.78;4995030;28;20109;-76
2022/12/12 05:54:40;;;;;;;7.40;4.55;;;;;;;7.10;100.00;99433.50;4992272;28;20080;-76
2022/12/12 05:57:06;;;;;;;7.40;4.95;;;;;;;7.09;100.00;99447.16;4992130;28;20030;-74
2022/12/12 05:59:31;;;;;;;10.70;4.10;;;;;;;7.05;100.00;99445.31;4975145;28;20031;-76
2022/12/12 06:01:57;;;;;;;5.35;3.72;;;;;;;7.03;100.00;99446.94;4975376;28;20041;-74
2022/12/12 06:04:22;;;;;;;6.65;4.13;;;;;;;6.92;100.00;99449.16;4975295;28;20042;-76
2022/12/12 06:06:48;;;;;;;9.70;3.50;;;;;;;6.88;100.00;99448.19;4975366;28;20035;-76
2022/12/12 06:09:13;;;;;;;5.53;3.33;;;;;;;6.88;100.00;99462.69;4975175;28;20043;-74
2022/12/12 06:11:38;;;;;;;10.82;6.30;;;;;;;6.86;100.00;99454.94;4976219;28;20031;-80
2022/12/12 06:14:04;;;;;;;20.52;12.32;;;;;;;6.84;100.00;99432.63;4977949;28;20477;-79
2022/12/12 06:16:29;;;;;;;11.15;5.00;;;;;;;6.95;100.00;99442.44;4975470;28;20027;-77
2022/12/12 06:18:55;;;;;;;5.68;3.35;;;;;;;6.98;100.00;99444.25;4973659;28;20033;-80
2022/12/12 06:21:22;;;;;;;4.80;3.17;;;;;;;7.01;100.00;99454.59;4988789;28;20015;-81
2022/12/12 06:23:48;;;;;;;5.55;3.00;;;;;;;6.89;100.00;99462.75;4978739;28;20032;-77
2022/12/12 06:26:15;;;;;;;5.13;3.60;;;;;;;6.85;100.00;99466.00;4975467;28;20124;-77
2022/12/12 06:28:41;;;;;;;5.15;3.50;;;;;;;6.95;100.00;99473.25;4973691;28;20030;-77
2022/12/12 06:31:08;;;;;;;6.80;3.72;;;;;;;7.04;100.00;99476.94;4975194;28;20038;-79
2022/12/12 06:33:34;;;;;;;5.40;3.60;;;;;;;7.12;100.00;99481.50;4974085;28;20474;-81
2022/12/12 06:36:32;;;;;;;6.32;3.42;;;;;;;7.22;100.00;99486.97;4973978;28;20023;-77
2022/12/12 06:39:00;;;;;;;6.55;5.05;;;;;;;7.01;100.00;99451.19;4951200;28;20031;-77
2022/12/12 06:41:28;;;;;;;7.25;4.90;;;;;;;7.23;100.00;99502.44;4951703;28;20047;-78
2022/12/12 06:43:54;;;;;;;6.93;5.25;;;;;;;7.19;100.00;99508.28;4954105;28;20047;-76
2022/12/12 06:46:26;;;;;;;5.53;3.53;;;;;;;7.06;100.00;99489.00;4963062;28;20039;-75
2022/12/12 06:48:52;;;;;;;6.22;4.07;;;;;;;7.09;100.00;99496.81;4955427;28;20407;-77
2022/12/12 06:51:21;;;;;;;5.28;3.55;;;;;;;7.13;100.00;99502.94;4951565;28;20034;-81
2022/12/12 06:53:46;;;;;;;6.35;3.72;;;;;;;7.17;100.00;99502.22;4951834;28;20139;-79
2022/12/12 06:56:14;;;;;;;5.13;3.40;;;;;;;7.24;100.00;99509.31;4913380;29;20032;-77
2022/12/12 06:58:40;;;;;;;7.65;4.57;;;;;;;7.21;100.00;99510.91;4913501;29;20040;-80
2022/12/12 07:01:07;;;;;;;5.78;3.30;;;;;;;7.20;100.00;99498.88;4913539;29;20067;-77
2022/12/12 07:03:33;;;;;;;6.63;4.60;;;;;;;7.08;100.00;99477.09;4922375;29;20032;-74
2022/12/12 07:05:58;;;;;;;9.40;4.30;;;;;;;7.32;100.00;99508.72;4915188;29;20040;-77
2022/12/12 07:08:25;;;;;;;9.40;5.05;;;;;;;7.33;100.00;99523.28;4933023;29;20043;-77
2022/12/12 07:10:50;;;;;;;8.10;4.35;;;;;;;7.29;100.00;99525.75;4915886;29;20047;-80
2022/12/12 07:13:15;;;;;;;10.63;7.03;;;;;;;7.39;100.00;99528.63;4932856;29;20032;-80
2022/12/12 07:15:42;;;;;;;11.32;6.97;;;;;;;7.43;100.00;99535.63;4950805;28;20122;-78
2022/12/12 07:18:08;;;;;;;6.82;4.90;;;;;;;7.41;100.00;99547.53;4935427;28;20063;-80
2022/12/12 07:20:33;;;;;;;6.15;4.05;;;;;;;7.12;100.00;99532.00;4937076;28;21827;-78
2022/12/12 07:22:58;;;;;;;7.47;4.40;;;;;;;7.06;100.00;99498.41;4945224;28;20051;-82
2022/12/12 07:25:24;;;;;;;6.97;4.70;;;;;;;7.18;100.00;99523.59;4944441;28;20507;-89
2022/12/12 07:27:49;;;;;;;9.00;4.80;;;;;;;7.19;100.00;99539.09;4988806;28;20044;-84
2022/12/12 07:30:15;;;;;;;7.88;5.25;;;;;;;7.21;100.00;99524.59;5009813;28;20529;-80
2022/12/12 07:32:40;;;;;;;12.60;6.88;;;;;;;7.26;100.00;99522.19;5009819;28;20081;-85
2022/12/12 07:35:06;;;;;;;16.75;9.02;;;;;;;7.49;100.00;99540.09;4992681;28;20042;-85
2022/12/12 07:37:31;;;;;;;9.68;6.38;;;;;;;7.41;100.00;99512.47;5009491;28;20041;-79
2022/12/12 07:39:57;;;;;;;9.75;5.78;;;;;;;7.69;100.00;99549.34;5007796;28;20112;-79
2022/12/12 07:42:22;;;;;;;11.52;7.00;;;;;;;7.54;100.00;99518.91;4997422;28;20042;-77
2022/12/12 07:44:47;;;;;;;16.42;8.00;;;;;;;7.81;100.00;99558.28;4994795;28;20073;-77
2022/12/12 07:47:13;;;;;;;11.93;6.80;;;;;;;7.80;100.00;99556.53;5003843;28;20049;-76
2022/12/12 07:49:38;;;;;;;12.27;6.10;;;;;;;7.84;100.00;99561.84;5009390;28;20143;-78
2022/12/12 07:52:04;;;;;;;7.35;5.30;;;;;;;7.78;100.00;99552.22;5009417;28;20471;-77
2022/12/12 07:54:29;;;;;;;9.85;5.68;;;;;;;7.94;100.00;99584.44;5009477;28;20448;-77
2022/12/12 07:56:57;;;;;;;8.55;5.80;;;;;;;8.01;100.00;99592.34;5008654;28;20034;-78
2022/12/12 07:59:23;;;;;;;9.15;6.00;;;;;;;7.90;100.00;99590.31;5009417;28;20041;-80
2022/12/12 08:01:48;;;;;;;7.80;5.13;;;;;;;7.82;100.00;99593.44;5009067;28;20030;-78
2022/12/12 08:04:13;;;;;;;7.60;4.90;;;;;;;7.90;100.00;99616.03;5008816;28;20034;-78
2022/12/12 08:06:39;;;;;;;8.57;4.53;;;;;;;7.85;100.00;99611.53;5009273;28;20477;-76
2022/12/12 08:09:04;;;;;;;7.88;4.95;;;;;;;7.75;100.00;99612.91;5009053;28;20037;-79
2022/12/12 08:11:30;;;;;;;6.38;4.25;;;;;;;7.63;100.00;99609.91;5009211;28;20041;-78
2022/12/12 08:13:55;;;;;;;7.55;4.70;;;;;;;7.59;100.00;99612.38;5006556;28;20053;-82
2022/12/12 08:16:27;;;;;;;6.15;4.18;;;;;;;7.57;100.00;99597.75;4996630;28;20038;-81
2022/12/12 08:18:54;;;;;;;7.03;4.65;;;;;;;7.42;100.00;99585.25;5007024;28;20106;-76
2022/12/12 08:21:19;;;;;;;7.63;5.00;;;;;;;7.39;100.00;99605.66;4986136;28;20045;-79
2022/12/12 08:23:45;;;;;;;6.40;4.57;;;;;;;7.35;100.00;99604.69;4987868;28;20034;-79
2022/12/12 08:26:14;;;;;;;7.32;4.65;;;;;;;7.49;100.00;99617.13;4974136;28;20025;-80
2022/12/12 08:28:40;;;;;;;7.88;4.95;;;;;;;7.60;100.00;99619.28;4990905;28;20058;-80
2022/12/12 08:31:06;;;;;;;6.82;4.65;;;;;;;7.66;100.00;99615.16;4990899;28;20022;-79
2022/12/12 08:33:32;;;;;;;6.97;4.55;;;;;;;7.47;100.00;99583.69;4990736;28;20038;-78
2022/12/12 08:35:57;;;;;;;6.90;4.78;;;;;;;7.54;100.00;99595.94;5006108;28;20524;-80
2022/12/12 08:38:43;;;;;;;6.97;4.57;;;;;;;7.62;100.00;99609.03;4991028;28;20030;-80
2022/12/12 08:41:09;;;;;;;7.00;4.78;;;;;;;7.65;100.00;99580.91;5007575;28;20081;-80
2022/12/12 08:43:37;;;;;;;6.13;4.78;;;;;;;7.81;100.00;99594.28;4987790;28;20151;-81
2022/12/12 08:46:05;;;;;;;8.33;4.97;;;;;;;8.10;100.00;99611.53;4971368;28;20046;-80
2022/12/12 08:48:30;;;;;;;6.55;4.78;;;;;;;7.94;100.00;99560.44;4981570;28;20509;-80
2022/12/12 08:50:56;;;;;;;8.68;6.25;;;;;;;7.86;100.00;99603.91;4988213;28;20125;-80
2022/12/12 08:53:23;;;;;;;34.92;24.00;;;;;;;7.92;100.00;99598.97;4988154;28;20065;-80
2022/12/12 08:55:49;;;;;;;13.20;11.60;;;;;;;8.02;100.00;99605.25;4987874;28;20125;-80
2022/12/12 08:58:14;;;;;;;7.75;6.00;;;;;;;8.12;100.00;99603.88;4985012;28;20553;-80
2022/12/12 09:00:40;;;;;;;7.00;5.63;;;;;;;8.10;100.00;99582.41;4971525;28;20101;-80
2022/12/12 09:03:06;;;;;;;9.95;6.07;;;;;;;8.18;100.00;99586.06;4987833;28;20113;-78
2022/12/12 09:05:31;;;;;;;7.10;5.03;;;;;;;8.20;100.00;99581.88;4975662;28;20043;-81
2022/12/12 09:07:58;;;;;;;6.15;5.28;;;;;;;8.43;100.00;99584.28;4986380;28;20038;-87
2022/12/12 09:10:24;;;;;;;9.07;4.72;;;;;;;8.57;100.00;99585.63;4970549;28;20057;-81
2022/12/12 09:12:50;;;;;;;7.13;4.97;;;;;;;8.53;100.00;99588.91;4942384;28;20039;-82
2022/12/12 09:15:16;;;;;;;7.35;4.68;;;;;;;8.51;100.00;99579.41;4959270;28;20042;-81
2022/12/12 09:17:41;;;;;;;7.43;4.82;;;;;;;8.49;100.00;99584.50;4968309;28;20449;-81
2022/12/12 09:20:07;;;;;;;13.73;11.52;;;;;;;8.37;100.00;99576.38;4968205;28;20035;-81
2022/12/12 09:22:32;;;;;;;6.93;4.50;;;;;;;8.30;100.00;99577.00;4968488;28;20121;-81
2022/12/12 09:24:59;;;;;;;6.65;4.30;;;;;;;8.28;100.00;99570.97;4955110;28;20101;-80
2022/12/12 09:27:24;;;;;;;7.28;4.97;;;;;;;8.46;100.00;99573.22;4966739;28;20050;-81
2022/12/12 09:29:50;;;;;;;9.77;5.00;;;;;;;8.57;100.00;99577.91;4966738;28;20043;-80
2022/12/12 09:32:15;;;;;;;10.45;5.95;;;;;;;8.73;100.00;99555.19;4965996;28;20042;-81
2022/12/12 09:34:41;;;;;;;14.07;5.78;;;;;;;9.12;100.00;99575.22;4968535;28;20479;-80
2022/12/12 09:37:07;;;;;;;32.20;14.02;;;;;;;9.31;100.00;99575.69;4967870;28;20129;-80
2022/12/12 09:39:32;;;;;;;21.70;8.88;;;;;;;9.49;100.00;99567.63;4968627;28;20041;-80
2022/12/12 09:42:08;;;;;;;20.50;9.80;;;;;;;9.73;100.00;99574.25;4968570;28;20039;-82
2022/12/12 09:44:33;;;;;;;15.43;6.05;;;;;;;9.59;100.00;99545.53;4968596;28;20086;-80
2022/12/12 09:47:06;;;;;;;11.25;5.82;;;;;;;9.64;100.00;99574.88;4955242;28;20042;-79
2022/12/12 09:49:48;;;;;;;18.45;6.07;;;;;;;9.65;100.00;99574.91;5023330;28;20030;-80
2022/12/12 09:52:34;;;;;;;9.95;5.05;;;;;;;9.51;100.00;99574.56;5027088;28;20041;-82
2022/12/12 09:55:07;;;;;;;15.30;5.45;;;;;;;9.55;100.00;99572.94;5019162;28;20081;-79
2022/12/12 09:57:45;;;;;;;11.30;4.65;;;;;;;9.22;100.00;99536.00;5004798;28;20561;-81
2022/12/12 10:00:13;;;;;;;8.68;4.80;;;;;;;9.49;100.00;99565.91;4997045;28;20022;-78
2022/12/12 10:03:03;;;;;;;12.52;5.50;;;;;;;9.30;100.00;99537.94;5025133;28;20026;-78
2022/12/12 10:05:48;;;;;;;8.35;5.35;;;;;;;9.52;100.00;99590.88;5001717;28;20113;-78
2022/12/12 10:08:20;;;;;;;8.20;4.75;;;;;;;9.57;100.00;99553.25;5007270;28;20018;-79
2022/12/12 10:10:55;;;;;;;10.25;6.63;;;;;;;9.82;100.00;99570.19;5010179;28;20026;-87
2022/12/12 10:13:25;;;;;;;11.23;6.05;;;;;;;9.65;100.00;99537.97;5008461;28;20137;-79
2022/12/12 10:16:13;;;;;;;10.40;6.15;;;;;;;9.71;100.00;99540.72;5008634;28;20041;-82
2022/12/12 10:18:44;;;;;;;10.13;6.60;;;;;;;9.94;100.00;99579.06;5009803;28;20052;-79
2022/12/12 10:21:39;;;;;;;10.80;6.57;;;;;;;10.11;100.00;99570.03;5002617;28;20025;-81
2022/12/12 10:24:17;;;;;;;11.30;6.90;;;;;;;10.28;100.00;99562.72;4971697;28;20035;-84
2022/12/12 10:26:42;;;;;;;12.18;6.53;;;;;;;10.30;100.00;99526.63;4971972;28;20034;-86
2022/12/12 10:29:16;;;;;;;10.18;6.35;;;;;;;10.57;100.00;99551.34;4955938;28;20105;-87
2022/12/12 10:32:03;;;;;;;10.18;6.75;;;;;;;10.73;100.00;99550.84;4955930;28;20098;-87
2022/12/12 10:35:06;;;;;;;8.07;5.90;;;;;;;10.75;100.00;99551.72;4971761;28;20217;-87
2022/12/12 10:37:43;;;;;;;12.68;6.65;;;;;;;10.79;100.00;99547.50;4971818;28;20053;-79
2022/12/12 10:40:23;;;;;;;7.03;5.60;;;;;;;10.83;100.00;99526.09;4971629;28;20042;-80
2022/12/12 10:42:56;;;;;;;7.25;5.47;;;;;;;10.98;100.00;99541.91;4971512;28;20092;-80
2022/12/12 10:45:22;;;;;;;9.60;6.00;;;;;;;11.17;100.00;99540.53;4971421;28;20067;-83
2022/12/12 10:47:48;;;;;;;9.82;5.85;;;;;;;11.21;100.00;99530.28;4971505;28;20039;-83
2022/12/12 10:50:34;;;;;;;10.50;5.30;;;;;;;11.30;100.00;99540.78;4971576;28;20540;-79
2022/12/12 10:53:03;;;;;;;7.70;5.00;;;;;;;10.95;100.00;99481.56;4970950;28;20027;-83
2022/12/12 10:55:54;;;;;;;6.45;4.38;;;;;;;11.22;99.75;99537.19;4968691;28;20406;-82
2022/12/12 10:58:24;;;;;;;7.88;4.72;;;;;;;11.23;99.82;99526.88;4955174;28;20035;-83
2022/12/12 11:00:50;;;;;;;7.35;4.47;;;;;;;11.10;100.00;99511.97;4975782;28;20046;-84
2022/12/12 11:03:35;;;;;;;8.32;4.20;;;;;;;11.02;100.00;99514.41;4990011;28;20502;-82
2022/12/12 11:06:05;;;;;;;5.35;3.95;;;;;;;11.23;100.00;99541.53;4990503;28;20042;-84
2022/12/12 11:08:34;;;;;;;9.77;4.22;;;;;;;11.43;100.00;99542.75;4990550;28;20042;-84
2022/12/12 11:11:05;;;;;;;;;;;;;;;11.32;100.00;99539.09;4991055;28;20039;-84
2022/12/12 11:16:12;;;;;;;6.90;4.32;;;;;;;10.96;100.00;99525.47;5033601;23;20066;-82
2022/12/12 11:18:37;;;;;;;8.48;4.50;;;;;;;11.00;100.00;99529.00;4992465;28;20481;-84
2022/12/12 11:21:12;;;;;;;6.22;3.95;;;;;;;10.85;100.00;99524.41;4975903;28;20027;-84
2022/12/12 11:23:40;;;;;;;9.98;4.80;;;;;;;10.87;100.00;99514.13;4999394;28;20019;-84
2022/12/12 11:26:16;;;;;;;7.88;4.10;;;;;;;11.13;100.00;99525.81;4998918;28;20096;-87
2022/12/12 11:31:23;;;;;;;6.05;3.75;;;;;;;11.49;100.00;99526.50;5046265;22;20116;-87
2022/12/12 11:33:52;;;;;;;6.32;3.90;;;;;;;11.63;100.00;99518.97;5029458;28;20100;-85
2022/12/12 11:36:20;;;;;;;;;;;;;;;11.60;100.00;99514.63;5010627;28;20069;-79
2022/12/12 11:38:52;;;;;;;6.97;4.20;;;;;;;11.15;100.00;99436.31;5033131;28;19948;-79
2022/12/12 11:41:17;;;;;;;5.65;3.92;;;;;;;11.63;100.00;99498.31;5029799;28;20215;-80
2022/12/12 11:43:43;;;;;;;9.90;5.10;;;;;;;11.82;100.00;99510.69;5029679;28;20053;-79
2022/12/12 11:46:14;;;;;;;7.35;3.67;;;;;;;11.86;100.00;99506.41;5045790;28;20025;-85
2022/12/12 11:48:45;;;;;;;5.70;3.78;;;;;;;11.89;100.00;99510.81;5049686;28;20052;-83
2022/12/12 11:51:11;;;;;;;6.30;3.60;;;;;;;11.81;99.78;99503.78;5047542;28;20029;-83
2022/12/12 11:53:40;;;;;;;6.20;3.97;;;;;;;11.94;99.48;99510.00;5037372;28;20432;-80
2022/12/12 11:56:08;;;;;;;7.47;3.85;;;;;;;11.94;100.00;99509.16;5049551;28;20036;-76
2022/12/12 11:59:02;;;;;;;7.03;3.38;;;;;;;11.81;100.00;99483.09;5049554;28;20124;-89
2022/12/12 12:01:58;;;;;;;10.60;6.22;;;;;;;11.63;100.00;99488.81;4990069;28;20092;-81
2022/12/12 12:04:35;;;;;;;10.60;4.35;;;;;;;11.65;100.00;99491.41;4973047;28;20062;-84